sensor_id;sensor_type;location;lat;lon;timestamp;P1;durP1;ratioP1;P2;durP2;ratioP2
15689;SDS011;7945;48.816;11.506;2022-08-16T00:01:46;0.30;;;0.30;;
15689;SDS011;7945;48.816;11.506;2022-08-16T00:04:14;0.30;;;0.30;;
15689;SDS011;7945;48.816;11.506;2022-08-16T00:06:41;0.40;;;0.40;;
15689;SDS011;7945;48.816;11.506;2022-08-16T00:09:08;0.40;;;0.40;;
15689;SDS011;7945;48.816;11.506;2022-08-16T00:11:36;0.32;;;0.32;;
15689;SDS011;7945;48.816;11.506;2022-08-16T00:14:06;0.30;;;0.30;;
15689;SDS011;7945;48.816;11.506;2022-08-16T00:16:35;0.30;;;0.30;;
15689;SDS011;7945;48.816;11.506;2022-08-16T00:19:04;0.38;;;0.38;;
15689;SDS011;7945;48.816;11.506;2022-08-16T00:21:31;0.40;;;0.40;;
15689;SDS011;7945;48.816;11.506;2022-08-16T00:23:58;0.30;;;0.30;;
15689;SDS011;7945;48.816;11.506;2022-08-16T00:26:26;0.30;;;0.30;;
15689;SDS011;7945;48.816;11.506;2022-08-16T00:28:53;0.30;;;0.30;;
15689;SDS011;7945;48.816;11.506;2022-08-16T00:31:20;0.30;;;0.30;;
15689;SDS011;7945;48.816;11.506;2022-08-16T00:33:47;0.45;;;0.45;;
15689;SDS011;7945;48.816;11.506;2022-08-16T00:36:15;0.30;;;0.30;;
15689;SDS011;7945;48.816;11.506;2022-08-16T00:38:42;0.35;;;0.35;;
15689;SDS011;7945;48.816;11.506;2022-08-16T00:41:09;0.40;;;0.40;;
15689;SDS011;7945;48.816;11.506;2022-08-16T00:43:36;0.40;;;0.40;;
15689;SDS011;7945;48.816;11.506;2022-08-16T00:46:06;0.40;;;0.40;;
15689;SDS011;7945;48.816;11.506;2022-08-16T00:48:39;0.40;;;0.40;;
15689;SDS011;7945;48.816;11.506;2022-08-16T00:51:08;0.30;;;0.30;;
15689;SDS011;7945;48.816;11.506;2022-08-16T00:53:37;0.30;;;0.30;;
15689;SDS011;7945;48.816;11.506;2022-08-16T00:56:07;0.32;;;0.32;;
15689;SDS011;7945;48.816;11.506;2022-08-16T00:58:39;0.40;;;0.40;;
15689;SDS011;7945;48.816;11.506;2022-08-16T01:01:10;0.30;;;0.30;;
15689;SDS011;7945;48.816;11.506;2022-08-16T01:03:38;0.40;;;0.40;;
15689;SDS011;7945;48.816;11.506;2022-08-16T01:06:07;0.40;;;0.40;;
15689;SDS011;7945;48.816;11.506;2022-08-16T01:08:35;0.30;;;0.30;;
15689;SDS011;7945;48.816;11.506;2022-08-16T01:11:04;0.30;;;0.30;;
15689;SDS011;7945;48.816;11.506;2022-08-16T01:13:32;0.35;;;0.35;;
15689;SDS011;7945;48.816;11.506;2022-08-16T01:16:01;0.30;;;0.30;;
15689;SDS011;7945;48.816;11.506;2022-08-16T01:18:33;0.30;;;0.30;;
15689;SDS011;7945;48.816;11.506;2022-08-16T01:21:07;0.30;;;0.30;;
15689;SDS011;7945;48.816;11.506;2022-08-16T01:23:49;0.30;;;0.30;;
15689;SDS011;7945;48.816;11.506;2022-08-16T01:26:22;0.40;;;0.40;;
15689;SDS011;7945;48.816;11.506;2022-08-16T01:28:54;0.30;;;0.30;;
15689;SDS011;7945;48.816;11.506;2022-08-16T01:31:21;0.38;;;0.38;;
15689;SDS011;7945;48.816;11.506;2022-08-16T01:33:50;0.47;;;0.47;;
15689;SDS011;7945;48.816;11.506;2022-08-16T01:36:17;0.40;;;0.40;;
15689;SDS011;7945;48.816;11.506;2022-08-16T01:38:44;0.30;;;0.30;;
15689;SDS011;7945;48.816;11.506;2022-08-16T01:41:15;0.30;;;0.30;;
15689;SDS011;7945;48.816;11.506;2022-08-16T01:43:45;0.30;;;0.30;;
15689;SDS011;7945;48.816;11.506;2022-08-16T01:46:18;0.40;;;0.40;;
15689;SDS011;7945;48.816;11.506;2022-08-16T01:48:47;0.40;;;0.40;;
15689;SDS011;7945;48.816;11.506;2022-08-16T01:51:18;0.40;;;0.40;;
15689;SDS011;7945;48.816;11.506;2022-08-16T01:53:46;0.30;;;0.30;;
15689;SDS011;7945;48.816;11.506;2022-08-16T01:56:15;0.40;;;0.40;;
15689;SDS011;7945;48.816;11.506;2022-08-16T01:58:42;0.30;;;0.30;;
15689;SDS011;7945;48.816;11.506;2022-08-16T02:01:09;0.30;;;0.30;;
15689;SDS011;7945;48.816;11.506;2022-08-16T02:03:36;0.40;;;0.40;;
15689;SDS011;7945;48.816;11.506;2022-08-16T02:06:03;0.30;;;0.30;;
15689;SDS011;7945;48.816;11.506;2022-08-16T02:08:31;0.30;;;0.30;;
15689;SDS011;7945;48.816;11.506;2022-08-16T02:10:58;0.30;;;0.30;;
15689;SDS011;7945;48.816;11.506;2022-08-16T02:13:27;0.40;;;0.40;;
15689;SDS011;7945;48.816;11.506;2022-08-16T02:15:54;0.40;;;0.40;;
15689;SDS011;7945;48.816;11.506;2022-08-16T02:18:21;0.32;;;0.32;;
15689;SDS011;7945;48.816;11.506;2022-08-16T02:20:49;0.30;;;0.30;;
15689;SDS011;7945;48.816;11.506;2022-08-16T02:23:18;0.40;;;0.40;;
15689;SDS011;7945;48.816;11.506;2022-08-16T02:25:46;0.40;;;0.40;;
15689;SDS011;7945;48.816;11.506;2022-08-16T02:28:13;0.40;;;0.40;;
15689;SDS011;7945;48.816;11.506;2022-08-16T02:30:42;0.40;;;0.40;;
15689;SDS011;7945;48.816;11.506;2022-08-16T02:33:10;0.40;;;0.40;;
15689;SDS011;7945;48.816;11.506;2022-08-16T02:35:37;0.40;;;0.40;;
15689;SDS011;7945;48.816;11.506;2022-08-16T02:38:05;0.30;;;0.30;;
15689;SDS011;7945;48.816;11.506;2022-08-16T02:40:32;0.40;;;0.40;;
15689;SDS011;7945;48.816;11.506;2022-08-16T02:42:59;0.40;;;0.40;;
15689;SDS011;7945;48.816;11.506;2022-08-16T02:45:27;0.38;;;0.38;;
15689;SDS011;7945;48.816;11.506;2022-08-16T02:47:55;0.30;;;0.30;;
15689;SDS011;7945;48.816;11.506;2022-08-16T02:50:22;0.30;;;0.30;;
15689;SDS011;7945;48.816;11.506;2022-08-16T02:52:49;0.30;;;0.30;;
15689;SDS011;7945;48.816;11.506;2022-08-16T02:55:17;0.30;;;0.30;;
15689;SDS011;7945;48.816;11.506;2022-08-16T02:57:44;0.40;;;0.40;;
15689;SDS011;7945;48.816;11.506;2022-08-16T03:00:12;0.30;;;0.30;;
15689;SDS011;7945;48.816;11.506;2022-08-16T03:02:41;0.32;;;0.32;;
15689;SDS011;7945;48.816;11.506;2022-08-16T03:05:11;0.40;;;0.40;;
15689;SDS011;7945;48.816;11.506;2022-08-16T03:07:39;0.30;;;0.30;;
15689;SDS011;7945;48.816;11.506;2022-08-16T03:10:08;0.35;;;0.35;;
15689;SDS011;7945;48.816;11.506;2022-08-16T03:12:37;0.40;;;0.40;;
15689;SDS011;7945;48.816;11.506;2022-08-16T03:15:05;0.32;;;0.32;;
15689;SDS011;7945;48.816;11.506;2022-08-16T03:17:33;0.30;;;0.30;;
15689;SDS011;7945;48.816;11.506;2022-08-16T03:20:01;0.30;;;0.30;;
15689;SDS011;7945;48.816;11.506;2022-08-16T03:22:30;0.30;;;0.30;;
15689;SDS011;7945;48.816;11.506;2022-08-16T03:24:58;0.40;;;0.40;;
15689;SDS011;7945;48.816;11.506;2022-08-16T03:27:28;0.40;;;0.40;;
15689;SDS011;7945;48.816;11.506;2022-08-16T03:29:55;0.38;;;0.38;;
15689;SDS011;7945;48.816;11.506;2022-08-16T03:32:22;0.30;;;0.30;;
15689;SDS011;7945;48.816;11.506;2022-08-16T03:34:49;0.30;;;0.30;;
15689;SDS011;7945;48.816;11.506;2022-08-16T03:37:16;0.40;;;0.40;;
15689;SDS011;7945;48.816;11.506;2022-08-16T03:39:44;0.40;;;0.40;;
15689;SDS011;7945;48.816;11.506;2022-08-16T03:42:11;0.40;;;0.40;;
15689;SDS011;7945;48.816;11.506;2022-08-16T03:44:38;0.40;;;0.40;;
15689;SDS011;7945;48.816;11.506;2022-08-16T03:47:05;0.30;;;0.30;;
15689;SDS011;7945;48.816;11.506;2022-08-16T03:49:33;0.47;;;0.47;;
15689;SDS011;7945;48.816;11.506;2022-08-16T03:52:00;0.40;;;0.40;;
15689;SDS011;7945;48.816;11.506;2022-08-16T03:54:27;0.30;;;0.30;;
15689;SDS011;7945;48.816;11.506;2022-08-16T03:56:56;0.40;;;0.40;;
15689;SDS011;7945;48.816;11.506;2022-08-16T03:59:23;0.38;;;0.38;;
15689;SDS011;7945;48.816;11.506;2022-08-16T04:01:50;0.40;;;0.40;;
15689;SDS011;7945;48.816;11.506;2022-08-16T04:04:17;0.40;;;0.40;;
15689;SDS011;7945;48.816;11.506;2022-08-16T04:06:45;0.68;;;0.68;;
15689;SDS011;7945;48.816;11.506;2022-08-16T04:09:12;0.40;;;0.40;;
15689;SDS011;7945;48.816;11.506;2022-08-16T04:11:38;0.40;;;0.40;;
15689;SDS011;7945;48.816;11.506;2022-08-16T04:14:07;0.40;;;0.40;;
15689;SDS011;7945;48.816;11.506;2022-08-16T04:16:34;0.40;;;0.40;;
15689;SDS011;7945;48.816;11.506;2022-08-16T04:19:00;0.35;;;0.35;;
15689;SDS011;7945;48.816;11.506;2022-08-16T04:21:29;0.40;;;0.40;;
15689;SDS011;7945;48.816;11.506;2022-08-16T04:23:56;0.40;;;0.40;;
15689;SDS011;7945;48.816;11.506;2022-08-16T04:26:23;0.40;;;0.40;;
15689;SDS011;7945;48.816;11.506;2022-08-16T04:28:50;0.40;;;0.40;;
15689;SDS011;7945;48.816;11.506;2022-08-16T04:31:19;0.40;;;0.40;;
15689;SDS011;7945;48.816;11.506;2022-08-16T04:33:45;0.40;;;0.40;;
15689;SDS011;7945;48.816;11.506;2022-08-16T04:36:12;0.40;;;0.40;;
15689;SDS011;7945;48.816;11.506;2022-08-16T04:38:39;0.40;;;0.40;;
15689;SDS011;7945;48.816;11.506;2022-08-16T04:41:06;0.40;;;0.40;;
15689;SDS011;7945;48.816;11.506;2022-08-16T04:43:33;0.40;;;0.40;;
15689;SDS011;7945;48.816;11.506;2022-08-16T04:46:02;0.40;;;0.40;;
15689;SDS011;7945;48.816;11.506;2022-08-16T04:48:30;0.40;;;0.40;;
15689;SDS011;7945;48.816;11.506;2022-08-16T04:50:57;0.40;;;0.40;;
15689;SDS011;7945;48.816;11.506;2022-08-16T04:53:24;0.40;;;0.40;;
15689;SDS011;7945;48.816;11.506;2022-08-16T04:55:52;0.40;;;0.40;;
15689;SDS011;7945;48.816;11.506;2022-08-16T04:58:19;0.40;;;0.40;;
15689;SDS011;7945;48.816;11.506;2022-08-16T05:00:46;0.40;;;0.40;;
15689;SDS011;7945;48.816;11.506;2022-08-16T05:03:13;0.40;;;0.40;;
15689;SDS011;7945;48.816;11.506;2022-08-16T05:05:41;0.32;;;0.32;;
15689;SDS011;7945;48.816;11.506;2022-08-16T05:08:08;0.40;;;0.40;;
15689;SDS011;7945;48.816;11.506;2022-08-16T05:10:35;0.40;;;0.40;;
15689;SDS011;7945;48.816;11.506;2022-08-16T05:13:03;0.40;;;0.40;;
15689;SDS011;7945;48.816;11.506;2022-08-16T05:15:31;0.40;;;0.40;;
15689;SDS011;7945;48.816;11.506;2022-08-16T05:17:58;0.40;;;0.40;;
15689;SDS011;7945;48.816;11.506;2022-08-16T05:20:25;0.30;;;0.30;;
15689;SDS011;7945;48.816;11.506;2022-08-16T05:22:54;0.40;;;0.40;;
15689;SDS011;7945;48.816;11.506;2022-08-16T05:25:21;0.30;;;0.30;;
15689;SDS011;7945;48.816;11.506;2022-08-16T05:27:48;0.30;;;0.30;;
15689;SDS011;7945;48.816;11.506;2022-08-16T05:30:15;0.30;;;0.30;;
15689;SDS011;7945;48.816;11.506;2022-08-16T05:32:42;0.30;;;0.30;;
15689;SDS011;7945;48.816;11.506;2022-08-16T05:35:09;0.20;;;0.20;;
15689;SDS011;7945;48.816;11.506;2022-08-16T05:37:37;0.20;;;0.20;;
15689;SDS011;7945;48.816;11.506;2022-08-16T05:40:08;0.20;;;0.20;;
15689;SDS011;7945;48.816;11.506;2022-08-16T05:42:37;0.20;;;0.20;;
15689;SDS011;7945;48.816;11.506;2022-08-16T05:45:04;0.20;;;0.20;;
15689;SDS011;7945;48.816;11.506;2022-08-16T05:47:32;0.17;;;0.17;;
15689;SDS011;7945;48.816;11.506;2022-08-16T05:49:59;0.30;;;0.30;;
15689;SDS011;7945;48.816;11.506;2022-08-16T05:52:25;0.20;;;0.20;;
15689;SDS011;7945;48.816;11.506;2022-08-16T05:54:52;0.10;;;0.10;;
15689;SDS011;7945;48.816;11.506;2022-08-16T05:57:21;0.10;;;0.10;;
15689;SDS011;7945;48.816;11.506;2022-08-16T05:59:48;0.10;;;0.10;;
15689;SDS011;7945;48.816;11.506;2022-08-16T06:02:15;0.10;;;0.10;;
15689;SDS011;7945;48.816;11.506;2022-08-16T06:04:42;0.52;;;0.52;;
15689;SDS011;7945;48.816;11.506;2022-08-16T06:07:09;0.10;;;0.10;;
15689;SDS011;7945;48.816;11.506;2022-08-16T06:09:36;0.20;;;0.20;;
15689;SDS011;7945;48.816;11.506;2022-08-16T06:14:42;0.20;;;0.20;;
15689;SDS011;7945;48.816;11.506;2022-08-16T06:17:09;0.20;;;0.20;;
15689;SDS011;7945;48.816;11.506;2022-08-16T06:19:36;0.20;;;0.20;;
15689;SDS011;7945;48.816;11.506;2022-08-16T06:22:03;0.25;;;0.25;;
15689;SDS011;7945;48.816;11.506;2022-08-16T06:24:30;0.20;;;0.20;;
15689;SDS011;7945;48.816;11.506;2022-08-16T06:26:57;0.15;;;0.15;;
15689;SDS011;7945;48.816;11.506;2022-08-16T06:29:23;0.20;;;0.20;;
15689;SDS011;7945;48.816;11.506;2022-08-16T06:31:52;0.20;;;0.20;;
15689;SDS011;7945;48.816;11.506;2022-08-16T06:34:19;0.20;;;0.20;;
15689;SDS011;7945;48.816;11.506;2022-08-16T06:36:46;0.20;;;0.20;;
15689;SDS011;7945;48.816;11.506;2022-08-16T06:39:13;0.20;;;0.20;;
15689;SDS011;7945;48.816;11.506;2022-08-16T06:41:40;0.20;;;0.20;;
15689;SDS011;7945;48.816;11.506;2022-08-16T06:44:07;0.30;;;0.30;;
15689;SDS011;7945;48.816;11.506;2022-08-16T06:46:34;0.20;;;0.20;;
15689;SDS011;7945;48.816;11.506;2022-08-16T06:49:04;0.30;;;0.30;;
15689;SDS011;7945;48.816;11.506;2022-08-16T06:51:33;0.20;;;0.20;;
15689;SDS011;7945;48.816;11.506;2022-08-16T06:54:02;0.30;;;0.30;;
15689;SDS011;7945;48.816;11.506;2022-08-16T06:56:29;0.30;;;0.30;;
15689;SDS011;7945;48.816;11.506;2022-08-16T06:58:56;0.30;;;0.30;;
15689;SDS011;7945;48.816;11.506;2022-08-16T07:01:22;0.30;;;0.30;;
15689;SDS011;7945;48.816;11.506;2022-08-16T07:03:49;0.20;;;0.20;;
15689;SDS011;7945;48.816;11.506;2022-08-16T07:06:19;0.20;;;0.20;;
15689;SDS011;7945;48.816;11.506;2022-08-16T07:08:47;0.20;;;0.20;;
15689;SDS011;7945;48.816;11.506;2022-08-16T07:11:17;0.20;;;0.20;;
15689;SDS011;7945;48.816;11.506;2022-08-16T07:13:45;0.30;;;0.30;;
15689;SDS011;7945;48.816;11.506;2022-08-16T07:16:14;0.20;;;0.20;;
15689;SDS011;7945;48.816;11.506;2022-08-16T07:18:42;0.20;;;0.20;;
15689;SDS011;7945;48.816;11.506;2022-08-16T07:21:09;0.20;;;0.20;;
15689;SDS011;7945;48.816;11.506;2022-08-16T07:23:38;0.20;;;0.20;;
15689;SDS011;7945;48.816;11.506;2022-08-16T07:26:06;0.20;;;0.20;;
15689;SDS011;7945;48.816;11.506;2022-08-16T07:28:35;0.20;;;0.20;;
15689;SDS011;7945;48.816;11.506;2022-08-16T07:31:03;0.20;;;0.20;;
15689;SDS011;7945;48.816;11.506;2022-08-16T07:33:30;0.20;;;0.20;;
15689;SDS011;7945;48.816;11.506;2022-08-16T07:36:01;0.20;;;0.20;;
15689;SDS011;7945;48.816;11.506;2022-08-16T07:38:28;0.20;;;0.20;;
15689;SDS011;7945;48.816;11.506;2022-08-16T07:40:56;0.20;;;0.20;;
15689;SDS011;7945;48.816;11.506;2022-08-16T07:43:23;0.20;;;0.20;;
15689;SDS011;7945;48.816;11.506;2022-08-16T07:45:51;0.25;;;0.25;;
15689;SDS011;7945;48.816;11.506;2022-08-16T07:48:17;0.28;;;0.28;;
15689;SDS011;7945;48.816;11.506;2022-08-16T07:50:44;0.20;;;0.20;;
15689;SDS011;7945;48.816;11.506;2022-08-16T07:53:11;0.20;;;0.20;;
15689;SDS011;7945;48.816;11.506;2022-08-16T07:55:39;0.20;;;0.20;;
15689;SDS011;7945;48.816;11.506;2022-08-16T07:58:08;0.20;;;0.20;;
15689;SDS011;7945;48.816;11.506;2022-08-16T08:00:36;0.20;;;0.20;;
15689;SDS011;7945;48.816;11.506;2022-08-16T08:03:03;0.20;;;0.20;;
15689;SDS011;7945;48.816;11.506;2022-08-16T08:05:30;0.20;;;0.20;;
15689;SDS011;7945;48.816;11.506;2022-08-16T08:58:03;0.20;;;0.20;;
15689;SDS011;7945;48.816;11.506;2022-08-16T09:00:30;0.45;;;0.45;;
15689;SDS011;7945;48.816;11.506;2022-08-16T09:02:57;0.20;;;0.20;;
15689;SDS011;7945;48.816;11.506;2022-08-16T09:05:24;0.20;;;0.20;;
15689;SDS011;7945;48.816;11.506;2022-08-16T09:07:52;0.20;;;0.20;;
15689;SDS011;7945;48.816;11.506;2022-08-16T09:10:20;0.20;;;0.20;;
15689;SDS011;7945;48.816;11.506;2022-08-16T09:12:47;0.20;;;0.20;;
15689;SDS011;7945;48.816;11.506;2022-08-16T09:15:15;0.20;;;0.20;;
15689;SDS011;7945;48.816;11.506;2022-08-16T09:17:44;0.20;;;0.20;;
15689;SDS011;7945;48.816;11.506;2022-08-16T09:20:11;0.20;;;0.20;;
15689;SDS011;7945;48.816;11.506;2022-08-16T09:22:39;0.20;;;0.20;;
15689;SDS011;7945;48.816;11.506;2022-08-16T09:25:08;0.20;;;0.20;;
15689;SDS011;7945;48.816;11.506;2022-08-16T09:27:35;0.20;;;0.20;;
15689;SDS011;7945;48.816;11.506;2022-08-16T09:30:02;0.22;;;0.22;;
15689;SDS011;7945;48.816;11.506;2022-08-16T09:32:31;0.20;;;0.20;;
15689;SDS011;7945;48.816;11.506;2022-08-16T09:34:59;0.20;;;0.20;;
15689;SDS011;7945;48.816;11.506;2022-08-16T09:37:26;0.20;;;0.20;;
15689;SDS011;7945;48.816;11.506;2022-08-16T09:39:54;0.20;;;0.20;;
15689;SDS011;7945;48.816;11.506;2022-08-16T09:42:22;0.20;;;0.20;;
15689;SDS011;7945;48.816;11.506;2022-08-16T09:44:48;0.20;;;0.20;;
15689;SDS011;7945;48.816;11.506;2022-08-16T09:47:15;0.20;;;0.20;;
15689;SDS011;7945;48.816;11.506;2022-08-16T09:49:44;0.20;;;0.20;;
15689;SDS011;7945;48.816;11.506;2022-08-16T09:52:11;0.20;;;0.20;;
15689;SDS011;7945;48.816;11.506;2022-08-16T09:54:38;0.20;;;0.20;;
15689;SDS011;7945;48.816;11.506;2022-08-16T09:57:05;0.17;;;0.17;;
15689;SDS011;7945;48.816;11.506;2022-08-16T09:59:32;0.17;;;0.17;;
15689;SDS011;7945;48.816;11.506;2022-08-16T10:01:59;0.10;;;0.10;;
15689;SDS011;7945;48.816;11.506;2022-08-16T10:04:26;0.20;;;0.20;;
15689;SDS011;7945;48.816;11.506;2022-08-16T10:06:55;0.10;;;0.10;;
15689;SDS011;7945;48.816;11.506;2022-08-16T10:09:23;0.20;;;0.20;;
15689;SDS011;7945;48.816;11.506;2022-08-16T10:11:53;0.20;;;0.20;;
15689;SDS011;7945;48.816;11.506;2022-08-16T10:14:37;0.20;;;0.20;;
15689;SDS011;7945;48.816;11.506;2022-08-16T10:17:04;0.20;;;0.20;;
15689;SDS011;7945;48.816;11.506;2022-08-16T10:19:31;0.20;;;0.20;;
15689;SDS011;7945;48.816;11.506;2022-08-16T10:22:00;0.10;;;0.10;;
15689;SDS011;7945;48.816;11.506;2022-08-16T10:24:27;0.20;;;0.20;;
15689;SDS011;7945;48.816;11.506;2022-08-16T10:26:53;0.10;;;0.10;;
15689;SDS011;7945;48.816;11.506;2022-08-16T10:29:21;0.20;;;0.20;;
15689;SDS011;7945;48.816;11.506;2022-08-16T10:31:48;0.20;;;0.20;;
15689;SDS011;7945;48.816;11.506;2022-08-16T10:34:15;0.13;;;0.13;;
15689;SDS011;7945;48.816;11.506;2022-08-16T10:36:42;0.13;;;0.13;;
15689;SDS011;7945;48.816;11.506;2022-08-16T10:39:10;0.10;;;0.10;;
15689;SDS011;7945;48.816;11.506;2022-08-16T10:41:37;0.20;;;0.20;;
15689;SDS011;7945;48.816;11.506;2022-08-16T10:44:04;0.10;;;0.10;;
15689;SDS011;7945;48.816;11.506;2022-08-16T10:46:31;0.10;;;0.10;;
15689;SDS011;7945;48.816;11.506;2022-08-16T10:48:58;0.10;;;0.10;;
15689;SDS011;7945;48.816;11.506;2022-08-16T10:51:25;0.10;;;0.10;;
15689;SDS011;7945;48.816;11.506;2022-08-16T10:53:52;0.20;;;0.20;;
15689;SDS011;7945;48.816;11.506;2022-08-16T10:56:21;0.10;;;0.10;;
15689;SDS011;7945;48.816;11.506;2022-08-16T10:58:50;0.10;;;0.10;;
15689;SDS011;7945;48.816;11.506;2022-08-16T11:01:17;0.10;;;0.10;;
15689;SDS011;7945;48.816;11.506;2022-08-16T11:03:44;0.32;;;0.30;;
15689;SDS011;7945;48.816;11.506;2022-08-16T11:06:11;0.17;;;0.17;;
15689;SDS011;7945;48.816;11.506;2022-08-16T11:08:37;0.10;;;0.10;;
15689;SDS011;7945;48.816;11.506;2022-08-16T11:11:05;0.17;;;0.17;;
15689;SDS011;7945;48.816;11.506;2022-08-16T11:13:34;0.10;;;0.10;;
15689;SDS011;7945;48.816;11.506;2022-08-16T11:16:01;0.10;;;0.10;;
15689;SDS011;7945;48.816;11.506;2022-08-16T11:18:28;0.10;;;0.10;;
15689;SDS011;7945;48.816;11.506;2022-08-16T11:20:56;0.10;;;0.10;;
15689;SDS011;7945;48.816;11.506;2022-08-16T11:23:23;0.10;;;0.10;;
15689;SDS011;7945;48.816;11.506;2022-08-16T11:25:52;0.10;;;0.10;;
15689;SDS011;7945;48.816;11.506;2022-08-16T11:28:20;0.10;;;0.10;;
15689;SDS011;7945;48.816;11.506;2022-08-16T11:30:49;0.10;;;0.10;;
15689;SDS011;7945;48.816;11.506;2022-08-16T11:33:16;0.10;;;0.10;;
15689;SDS011;7945;48.816;11.506;2022-08-16T11:35:43;0.10;;;0.10;;
15689;SDS011;7945;48.816;11.506;2022-08-16T11:38:11;0.13;;;0.13;;
15689;SDS011;7945;48.816;11.506;2022-08-16T11:40:41;0.30;;;0.30;;
15689;SDS011;7945;48.816;11.506;2022-08-16T11:43:12;0.15;;;0.15;;
15689;SDS011;7945;48.816;11.506;2022-08-16T11:45:40;0.10;;;0.10;;
15689;SDS011;7945;48.816;11.506;2022-08-16T11:48:08;0.13;;;0.13;;
15689;SDS011;7945;48.816;11.506;2022-08-16T11:50:35;0.10;;;0.10;;
15689;SDS011;7945;48.816;11.506;2022-08-16T11:53:03;0.20;;;0.20;;
15689;SDS011;7945;48.816;11.506;2022-08-16T11:55:31;0.30;;;0.30;;
15689;SDS011;7945;48.816;11.506;2022-08-16T11:57:59;0.10;;;0.10;;
15689;SDS011;7945;48.816;11.506;2022-08-16T12:00:26;0.20;;;0.20;;
15689;SDS011;7945;48.816;11.506;2022-08-16T12:02:55;0.10;;;0.10;;
15689;SDS011;7945;48.816;11.506;2022-08-16T12:05:23;0.10;;;0.10;;
15689;SDS011;7945;48.816;11.506;2022-08-16T12:07:51;0.20;;;0.20;;
15689;SDS011;7945;48.816;11.506;2022-08-16T12:10:19;0.10;;;0.10;;
15689;SDS011;7945;48.816;11.506;2022-08-16T12:12:47;0.10;;;0.10;;
15689;SDS011;7945;48.816;11.506;2022-08-16T12:15:16;0.17;;;0.17;;
15689;SDS011;7945;48.816;11.506;2022-08-16T12:17:43;0.10;;;0.10;;
15689;SDS011;7945;48.816;11.506;2022-08-16T12:20:11;0.20;;;0.20;;
15689;SDS011;7945;48.816;11.506;2022-08-16T12:22:41;0.30;;;0.30;;
15689;SDS011;7945;48.816;11.506;2022-08-16T12:25:09;0.10;;;0.10;;
15689;SDS011;7945;48.816;11.506;2022-08-16T12:27:38;0.10;;;0.10;;
15689;SDS011;7945;48.816;11.506;2022-08-16T12:30:07;0.20;;;0.20;;
15689;SDS011;7945;48.816;11.506;2022-08-16T12:32:35;0.10;;;0.10;;
15689;SDS011;7945;48.816;11.506;2022-08-16T12:35:02;0.10;;;0.10;;
15689;SDS011;7945;48.816;11.506;2022-08-16T12:37:31;0.10;;;0.10;;
15689;SDS011;7945;48.816;11.506;2022-08-16T12:40:01;0.10;;;0.10;;
15689;SDS011;7945;48.816;11.506;2022-08-16T12:42:31;0.10;;;0.10;;
15689;SDS011;7945;48.816;11.506;2022-08-16T12:44:58;0.10;;;0.10;;
15689;SDS011;7945;48.816;11.506;2022-08-16T12:47:25;0.10;;;0.10;;
15689;SDS011;7945;48.816;11.506;2022-08-16T12:50:09;0.30;;;0.30;;
15689;SDS011;7945;48.816;11.506;2022-08-16T12:52:36;0.10;;;0.10;;
15689;SDS011;7945;48.816;11.506;2022-08-16T12:55:05;0.13;;;0.13;;
15689;SDS011;7945;48.816;11.506;2022-08-16T12:57:35;0.10;;;0.10;;
15689;SDS011;7945;48.816;11.506;2022-08-16T13:00:04;0.10;;;0.10;;
15689;SDS011;7945;48.816;11.506;2022-08-16T13:02:34;0.10;;;0.10;;
15689;SDS011;7945;48.816;11.506;2022-08-16T13:05:02;0.10;;;0.10;;
15689;SDS011;7945;48.816;11.506;2022-08-16T13:07:30;0.20;;;0.20;;
15689;SDS011;7945;48.816;11.506;2022-08-16T13:09:57;0.10;;;0.10;;
15689;SDS011;7945;48.816;11.506;2022-08-16T13:12:34;0.10;;;0.10;;
15689;SDS011;7945;48.816;11.506;2022-08-16T13:15:03;0.10;;;0.10;;
15689;SDS011;7945;48.816;11.506;2022-08-16T13:17:32;0.13;;;0.13;;
15689;SDS011;7945;48.816;11.506;2022-08-16T13:19:59;0.10;;;0.10;;
15689;SDS011;7945;48.816;11.506;2022-08-16T13:22:26;0.10;;;0.10;;
15689;SDS011;7945;48.816;11.506;2022-08-16T13:24:53;0.10;;;0.10;;
15689;SDS011;7945;48.816;11.506;2022-08-16T13:27:20;0.15;;;0.15;;
15689;SDS011;7945;48.816;11.506;2022-08-16T13:29:49;0.20;;;0.20;;
15689;SDS011;7945;48.816;11.506;2022-08-16T13:32:16;0.10;;;0.10;;
15689;SDS011;7945;48.816;11.506;2022-08-16T13:34:43;0.10;;;0.10;;
15689;SDS011;7945;48.816;11.506;2022-08-16T13:37:10;0.10;;;0.10;;
15689;SDS011;7945;48.816;11.506;2022-08-16T13:39:36;0.10;;;0.10;;
15689;SDS011;7945;48.816;11.506;2022-08-16T13:42:07;0.10;;;0.10;;
15689;SDS011;7945;48.816;11.506;2022-08-16T13:44:35;0.10;;;0.10;;
15689;SDS011;7945;48.816;11.506;2022-08-16T13:47:03;0.10;;;0.10;;
15689;SDS011;7945;48.816;11.506;2022-08-16T13:49:31;0.10;;;0.10;;
15689;SDS011;7945;48.816;11.506;2022-08-16T13:51:58;0.10;;;0.10;;
15689;SDS011;7945;48.816;11.506;2022-08-16T13:54:25;0.10;;;0.10;;
15689;SDS011;7945;48.816;11.506;2022-08-16T13:56:52;0.35;;;0.35;;
15689;SDS011;7945;48.816;11.506;2022-08-16T13:59:19;0.10;;;0.10;;
15689;SDS011;7945;48.816;11.506;2022-08-16T14:01:47;0.13;;;0.13;;
15689;SDS011;7945;48.816;11.506;2022-08-16T14:04:16;0.10;;;0.10;;
15689;SDS011;7945;48.816;11.506;2022-08-16T14:06:43;0.40;;;0.40;;
15689;SDS011;7945;48.816;11.506;2022-08-16T14:09:10;0.10;;;0.10;;
15689;SDS011;7945;48.816;11.506;2022-08-16T14:11:37;0.10;;;0.10;;
15689;SDS011;7945;48.816;11.506;2022-08-16T14:14:04;0.30;;;0.30;;
15689;SDS011;7945;48.816;11.506;2022-08-16T14:16:31;0.10;;;0.10;;
15689;SDS011;7945;48.816;11.506;2022-08-16T14:18:58;0.10;;;0.10;;
15689;SDS011;7945;48.816;11.506;2022-08-16T14:21:27;0.10;;;0.10;;
15689;SDS011;7945;48.816;11.506;2022-08-16T14:23:54;0.43;;;0.43;;
15689;SDS011;7945;48.816;11.506;2022-08-16T14:26:21;0.10;;;0.10;;
15689;SDS011;7945;48.816;11.506;2022-08-16T14:28:48;0.10;;;0.10;;
15689;SDS011;7945;48.816;11.506;2022-08-16T14:31:16;0.30;;;0.30;;
15689;SDS011;7945;48.816;11.506;2022-08-16T14:33:44;0.10;;;0.10;;
15689;SDS011;7945;48.816;11.506;2022-08-16T14:36:11;0.10;;;0.10;;
15689;SDS011;7945;48.816;11.506;2022-08-16T14:38:40;0.28;;;0.28;;
15689;SDS011;7945;48.816;11.506;2022-08-16T14:41:07;0.10;;;0.10;;
15689;SDS011;7945;48.816;11.506;2022-08-16T14:43:34;0.22;;;0.22;;
15689;SDS011;7945;48.816;11.506;2022-08-16T14:46:01;0.10;;;0.10;;
15689;SDS011;7945;48.816;11.506;2022-08-16T14:48:28;0.10;;;0.10;;
15689;SDS011;7945;48.816;11.506;2022-08-16T14:50:55;0.30;;;0.30;;
15689;SDS011;7945;48.816;11.506;2022-08-16T14:53:23;0.63;;;0.63;;
15689;SDS011;7945;48.816;11.506;2022-08-16T14:55:52;0.10;;;0.10;;
15689;SDS011;7945;48.816;11.506;2022-08-16T14:58:19;0.10;;;0.10;;
15689;SDS011;7945;48.816;11.506;2022-08-16T15:00:48;0.10;;;0.10;;
15689;SDS011;7945;48.816;11.506;2022-08-16T15:03:15;0.10;;;0.10;;
15689;SDS011;7945;48.816;11.506;2022-08-16T15:05:45;0.10;;;0.10;;
15689;SDS011;7945;48.816;11.506;2022-08-16T15:08:13;0.10;;;0.10;;
15689;SDS011;7945;48.816;11.506;2022-08-16T15:10:41;0.10;;;0.10;;
15689;SDS011;7945;48.816;11.506;2022-08-16T15:13:10;0.10;;;0.10;;
15689;SDS011;7945;48.816;11.506;2022-08-16T15:15:38;0.10;;;0.10;;
15689;SDS011;7945;48.816;11.506;2022-08-16T15:18:05;0.15;;;0.15;;
15689;SDS011;7945;48.816;11.506;2022-08-16T15:20:34;0.20;;;0.20;;
15689;SDS011;7945;48.816;11.506;2022-08-16T15:23:03;0.10;;;0.10;;
15689;SDS011;7945;48.816;11.506;2022-08-16T15:25:33;0.10;;;0.10;;
15689;SDS011;7945;48.816;11.506;2022-08-16T15:28:03;0.10;;;0.10;;
15689;SDS011;7945;48.816;11.506;2022-08-16T15:30:34;0.10;;;0.10;;
15689;SDS011;7945;48.816;11.506;2022-08-16T15:33:06;0.10;;;0.10;;
15689;SDS011;7945;48.816;11.506;2022-08-16T15:35:35;0.10;;;0.10;;
15689;SDS011;7945;48.816;11.506;2022-08-16T15:38:02;0.10;;;0.10;;
15689;SDS011;7945;48.816;11.506;2022-08-16T15:40:29;0.10;;;0.10;;
15689;SDS011;7945;48.816;11.506;2022-08-16T15:42:56;0.20;;;0.20;;
15689;SDS011;7945;48.816;11.506;2022-08-16T15:45:24;0.10;;;0.10;;